sensor_id;sensor_type;location;lat;lon;timestamp;P1;P2;P0
70915;PMS5003;58557;50.982;-3.222;2023-05-07T00:01:44;8;7;
70915;PMS5003;58557;50.982;-3.222;2023-05-07T00:04:10;11;8;
70915;PMS5003;58557;50.982;-3.222;2023-05-07T00:06:35;8;7;
70915;PMS5003;58557;50.982;-3.222;2023-05-07T00:09:00;10;8;
70915;PMS5003;58557;50.982;-3.222;2023-05-07T00:11:26;11;9;
70915;PMS5003;58557;50.982;-3.222;2023-05-07T00:13:52;7;7;
70915;PMS5003;58557;50.982;-3.222;2023-05-07T00:16:18;14;11;
70915;PMS5003;58557;50.982;-3.222;2023-05-07T00:18:43;13;10;
70915;PMS5003;58557;50.982;-3.222;2023-05-07T00:21:08;17;15;
70915;PMS5003;58557;50.982;-3.222;2023-05-07T00:23:34;16;14;
70915;PMS5003;58557;50.982;-3.222;2023-05-07T00:25:59;15;15;
70915;PMS5003;58557;50.982;-3.222;2023-05-07T00:28:24;18;13;
70915;PMS5003;58557;50.982;-3.222;2023-05-07T00:30:50;17;14;
70915;PMS5003;58557;50.982;-3.222;2023-05-07T00:33:16;13;10;
70915;PMS5003;58557;50.982;-3.222;2023-05-07T00:35:41;13;11;
70915;PMS5003;58557;50.982;-3.222;2023-05-07T00:38:07;12;9;
70915;PMS5003;58557;50.982;-3.222;2023-05-07T00:40:32;8;7;
70915;PMS5003;58557;50.982;-3.222;2023-05-07T00:42:58;10;8;
70915;PMS5003;58557;50.982;-3.222;2023-05-07T00:45:24;8;8;
70915;PMS5003;58557;50.982;-3.222;2023-05-07T00:47:49;4;4;
70915;PMS5003;58557;50.982;-3.222;2023-05-07T00:50:15;10;9;
70915;PMS5003;58557;50.982;-3.222;2023-05-07T00:52:41;17;13;
70915;PMS5003;58557;50.982;-3.222;2023-05-07T00:55:07;12;9;
70915;PMS5003;58557;50.982;-3.222;2023-05-07T00:57:32;13;9;
70915;PMS5003;58557;50.982;-3.222;2023-05-07T00:59:58;12;11;
70915;PMS5003;58557;50.982;-3.222;2023-05-07T01:02:24;8;8;
70915;PMS5003;58557;50.982;-3.222;2023-05-07T01:04:49;7;7;
70915;PMS5003;58557;50.982;-3.222;2023-05-07T01:07:15;13;12;
70915;PMS5003;58557;50.982;-3.222;2023-05-07T01:09:40;8;7;
70915;PMS5003;58557;50.982;-3.222;2023-05-07T01:12:06;8;6;
70915;PMS5003;58557;50.982;-3.222;2023-05-07T01:14:32;8;8;
70915;PMS5003;58557;50.982;-3.222;2023-05-07T01:16:57;7;6;
70915;PMS5003;58557;50.982;-3.222;2023-05-07T01:19:22;6;5;
70915;PMS5003;58557;50.982;-3.222;2023-05-07T01:21:48;8;7;
70915;PMS5003;58557;50.982;-3.222;2023-05-07T01:24:14;9;9;
70915;PMS5003;58557;50.982;-3.222;2023-05-07T01:26:40;9;6;
70915;PMS5003;58557;50.982;-3.222;2023-05-07T01:29:06;14;5;
70915;PMS5003;58557;50.982;-3.222;2023-05-07T01:31:32;7;6;
70915;PMS5003;58557;50.982;-3.222;2023-05-07T01:33:57;10;6;
70915;PMS5003;58557;50.982;-3.222;2023-05-07T01:36:23;9;9;
70915;PMS5003;58557;50.982;-3.222;2023-05-07T01:38:49;14;9;
70915;PMS5003;58557;50.982;-3.222;2023-05-07T01:41:14;15;7;
70915;PMS5003;58557;50.982;-3.222;2023-05-07T01:43:40;8;7;
70915;PMS5003;58557;50.982;-3.222;2023-05-07T01:46:05;8;8;
70915;PMS5003;58557;50.982;-3.222;2023-05-07T01:48:31;11;10;
70915;PMS5003;58557;50.982;-3.222;2023-05-07T01:50:57;11;8;
70915;PMS5003;58557;50.982;-3.222;2023-05-07T01:53:22;17;14;
70915;PMS5003;58557;50.982;-3.222;2023-05-07T01:55:47;11;6;
70915;PMS5003;58557;50.982;-3.222;2023-05-07T01:58:13;13;13;
70915;PMS5003;58557;50.982;-3.222;2023-05-07T02:00:38;7;7;
70915;PMS5003;58557;50.982;-3.222;2023-05-07T02:03:03;10;10;
70915;PMS5003;58557;50.982;-3.222;2023-05-07T02:05:29;7;7;
70915;PMS5003;58557;50.982;-3.222;2023-05-07T02:07:54;11;6;
70915;PMS5003;58557;50.982;-3.222;2023-05-07T02:10:20;8;8;
70915;PMS5003;58557;50.982;-3.222;2023-05-07T02:12:46;13;7;
70915;PMS5003;58557;50.982;-3.222;2023-05-07T02:15:11;11;10;
70915;PMS5003;58557;50.982;-3.222;2023-05-07T02:17:38;11;7;
70915;PMS5003;58557;50.982;-3.222;2023-05-07T02:20:02;10;7;
70915;PMS5003;58557;50.982;-3.222;2023-05-07T02:22:27;13;8;
70915;PMS5003;58557;50.982;-3.222;2023-05-07T02:24:53;6;6;
70915;PMS5003;58557;50.982;-3.222;2023-05-07T02:27:19;8;7;
70915;PMS5003;58557;50.982;-3.222;2023-05-07T02:29:45;12;10;
70915;PMS5003;58557;50.982;-3.222;2023-05-07T02:32:10;11;10;
70915;PMS5003;58557;50.982;-3.222;2023-05-07T02:34:36;10;8;
70915;PMS5003;58557;50.982;-3.222;2023-05-07T02:37:01;16;13;
70915;PMS5003;58557;50.982;-3.222;2023-05-07T02:39:27;13;11;
70915;PMS5003;58557;50.982;-3.222;2023-05-07T02:41:53;10;6;
70915;PMS5003;58557;50.982;-3.222;2023-05-07T02:44:18;14;8;
70915;PMS5003;58557;50.982;-3.222;2023-05-07T02:46:44;15;13;
70915;PMS5003;58557;50.982;-3.222;2023-05-07T02:49:09;12;11;
70915;PMS5003;58557;50.982;-3.222;2023-05-07T02:51:35;13;13;
70915;PMS5003;58557;50.982;-3.222;2023-05-07T02:54:00;21;17;
70915;PMS5003;58557;50.982;-3.222;2023-05-07T02:56:26;15;12;
70915;PMS5003;58557;50.982;-3.222;2023-05-07T02:58:51;16;11;
70915;PMS5003;58557;50.982;-3.222;2023-05-07T03:01:17;14;12;
70915;PMS5003;58557;50.982;-3.222;2023-05-07T03:03:43;7;7;
70915;PMS5003;58557;50.982;-3.222;2023-05-07T03:06:08;8;8;
70915;PMS5003;58557;50.982;-3.222;2023-05-07T03:08:34;7;6;
70915;PMS5003;58557;50.982;-3.222;2023-05-07T03:10:59;13;9;
70915;PMS5003;58557;50.982;-3.222;2023-05-07T03:13:24;6;6;
70915;PMS5003;58557;50.982;-3.222;2023-05-07T03:15:50;10;6;
70915;PMS5003;58557;50.982;-3.222;2023-05-07T03:18:16;16;13;
70915;PMS5003;58557;50.982;-3.222;2023-05-07T03:20:40;9;8;
70915;PMS5003;58557;50.982;-3.222;2023-05-07T03:23:06;8;7;
70915;PMS5003;58557;50.982;-3.222;2023-05-07T03:25:31;8;7;
70915;PMS5003;58557;50.982;-3.222;2023-05-07T03:27:56;10;10;
70915;PMS5003;58557;50.982;-3.222;2023-05-07T03:30:22;8;8;
70915;PMS5003;58557;50.982;-3.222;2023-05-07T03:32:48;13;11;
70915;PMS5003;58557;50.982;-3.222;2023-05-07T03:35:13;11;8;
70915;PMS5003;58557;50.982;-3.222;2023-05-07T03:37:39;12;9;
70915;PMS5003;58557;50.982;-3.222;2023-05-07T03:40:06;7;7;
70915;PMS5003;58557;50.982;-3.222;2023-05-07T03:42:31;12;12;
70915;PMS5003;58557;50.982;-3.222;2023-05-07T03:44:57;9;8;
70915;PMS5003;58557;50.982;-3.222;2023-05-07T03:47:23;13;9;
70915;PMS5003;58557;50.982;-3.222;2023-05-07T03:49:48;11;11;
70915;PMS5003;58557;50.982;-3.222;2023-05-07T03:52:14;8;8;
70915;PMS5003;58557;50.982;-3.222;2023-05-07T03:54:39;18;13;
70915;PMS5003;58557;50.982;-3.222;2023-05-07T03:57:05;8;6;
70915;PMS5003;58557;50.982;-3.222;2023-05-07T03:59:31;6;5;
70915;PMS5003;58557;50.982;-3.222;2023-05-07T04:01:56;6;6;
70915;PMS5003;58557;50.982;-3.222;2023-05-07T04:04:22;13;13;
70915;PMS5003;58557;50.982;-3.222;2023-05-07T04:06:47;9;7;
70915;PMS5003;58557;50.982;-3.222;2023-05-07T04:09:13;13;7;
70915;PMS5003;58557;50.982;-3.222;2023-05-07T04:11:38;8;8;
70915;PMS5003;58557;50.982;-3.222;2023-05-07T04:14:04;8;7;
70915;PMS5003;58557;50.982;-3.222;2023-05-07T04:16:30;10;8;
70915;PMS5003;58557;50.982;-3.222;2023-05-07T04:18:56;11;11;
70915;PMS5003;58557;50.982;-3.222;2023-05-07T04:21:21;11;11;
70915;PMS5003;58557;50.982;-3.222;2023-05-07T04:23:47;9;7;
70915;PMS5003;58557;50.982;-3.222;2023-05-07T04:26:13;11;6;
70915;PMS5003;58557;50.982;-3.222;2023-05-07T04:28:38;11;11;
70915;PMS5003;58557;50.982;-3.222;2023-05-07T04:31:04;9;7;
70915;PMS5003;58557;50.982;-3.222;2023-05-07T04:33:29;8;6;
70915;PMS5003;58557;50.982;-3.222;2023-05-07T04:35:55;8;6;
70915;PMS5003;58557;50.982;-3.222;2023-05-07T04:38:21;8;8;
70915;PMS5003;58557;50.982;-3.222;2023-05-07T04:40:47;9;9;
70915;PMS5003;58557;50.982;-3.222;2023-05-07T04:43:12;8;7;
70915;PMS5003;58557;50.982;-3.222;2023-05-07T04:45:38;7;7;
70915;PMS5003;58557;50.982;-3.222;2023-05-07T04:48:04;4;4;
70915;PMS5003;58557;50.982;-3.222;2023-05-07T04:50:29;9;8;
70915;PMS5003;58557;50.982;-3.222;2023-05-07T04:52:55;6;4;
70915;PMS5003;58557;50.982;-3.222;2023-05-07T04:55:20;14;8;
70915;PMS5003;58557;50.982;-3.222;2023-05-07T04:57:46;6;6;
70915;PMS5003;58557;50.982;-3.222;2023-05-07T05:00:11;15;8;
70915;PMS5003;58557;50.982;-3.222;2023-05-07T05:02:37;9;7;
70915;PMS5003;58557;50.982;-3.222;2023-05-07T05:05:02;13;13;
70915;PMS5003;58557;50.982;-3.222;2023-05-07T05:07:28;7;7;
70915;PMS5003;58557;50.982;-3.222;2023-05-07T05:09:53;10;10;
70915;PMS5003;58557;50.982;-3.222;2023-05-07T05:12:19;7;7;
70915;PMS5003;58557;50.982;-3.222;2023-05-07T05:14:45;8;7;
70915;PMS5003;58557;50.982;-3.222;2023-05-07T05:17:11;10;10;
70915;PMS5003;58557;50.982;-3.222;2023-05-07T05:19:36;8;7;
70915;PMS5003;58557;50.982;-3.222;2023-05-07T05:22:02;7;7;
70915;PMS5003;58557;50.982;-3.222;2023-05-07T05:24:27;10;8;
70915;PMS5003;58557;50.982;-3.222;2023-05-07T05:26:53;8;7;
70915;PMS5003;58557;50.982;-3.222;2023-05-07T05:29:19;10;8;
70915;PMS5003;58557;50.982;-3.222;2023-05-07T05:31:44;6;6;
70915;PMS5003;58557;50.982;-3.222;2023-05-07T05:34:10;9;9;
70915;PMS5003;58557;50.982;-3.222;2023-05-07T05:36:36;6;6;
70915;PMS5003;58557;50.982;-3.222;2023-05-07T05:39:01;6;5;
70915;PMS5003;58557;50.982;-3.222;2023-05-07T05:41:26;7;7;
70915;PMS5003;58557;50.982;-3.222;2023-05-07T05:43:52;9;7;
70915;PMS5003;58557;50.982;-3.222;2023-05-07T05:46:18;8;8;
70915;PMS5003;58557;50.982;-3.222;2023-05-07T05:48:44;8;7;
70915;PMS5003;58557;50.982;-3.222;2023-05-07T05:51:09;7;6;
70915;PMS5003;58557;50.982;-3.222;2023-05-07T05:53:35;10;6;
70915;PMS5003;58557;50.982;-3.222;2023-05-07T05:56:01;6;6;
70915;PMS5003;58557;50.982;-3.222;2023-05-07T05:58:27;9;9;
70915;PMS5003;58557;50.982;-3.222;2023-05-07T06:00:52;7;6;
70915;PMS5003;58557;50.982;-3.222;2023-05-07T06:03:18;6;6;
70915;PMS5003;58557;50.982;-3.222;2023-05-07T06:05:43;7;7;
70915;PMS5003;58557;50.982;-3.222;2023-05-07T06:08:09;9;7;
70915;PMS5003;58557;50.982;-3.222;2023-05-07T06:10:35;8;6;
70915;PMS5003;58557;50.982;-3.222;2023-05-07T06:13:00;6;6;
70915;PMS5003;58557;50.982;-3.222;2023-05-07T06:15:26;8;7;
70915;PMS5003;58557;50.982;-3.222;2023-05-07T06:17:52;10;8;
70915;PMS5003;58557;50.982;-3.222;2023-05-07T06:20:17;11;7;
70915;PMS5003;58557;50.982;-3.222;2023-05-07T06:22:43;8;7;
70915;PMS5003;58557;50.982;-3.222;2023-05-07T06:25:08;6;6;
70915;PMS5003;58557;50.982;-3.222;2023-05-07T06:27:34;6;6;
70915;PMS5003;58557;50.982;-3.222;2023-05-07T06:30:00;10;10;
70915;PMS5003;58557;50.982;-3.222;2023-05-07T06:32:25;8;7;
70915;PMS5003;58557;50.982;-3.222;2023-05-07T06:34:51;7;7;
70915;PMS5003;58557;50.982;-3.222;2023-05-07T06:37:16;9;7;
70915;PMS5003;58557;50.982;-3.222;2023-05-07T06:39:42;8;8;
70915;PMS5003;58557;50.982;-3.222;2023-05-07T06:42:07;6;6;
70915;PMS5003;58557;50.982;-3.222;2023-05-07T06:44:33;11;8;
70915;PMS5003;58557;50.982;-3.222;2023-05-07T06:46:59;7;7;
70915;PMS5003;58557;50.982;-3.222;2023-05-07T06:49:24;10;10;
70915;PMS5003;58557;50.982;-3.222;2023-05-07T06:51:50;9;7;
70915;PMS5003;58557;50.982;-3.222;2023-05-07T06:54:16;9;6;
70915;PMS5003;58557;50.982;-3.222;2023-05-07T06:56:41;7;5;
70915;PMS5003;58557;50.982;-3.222;2023-05-07T06:59:07;9;6;
70915;PMS5003;58557;50.982;-3.222;2023-05-07T07:01:33;7;6;
70915;PMS5003;58557;50.982;-3.222;2023-05-07T07:03:58;7;5;
70915;PMS5003;58557;50.982;-3.222;2023-05-07T07:06:24;5;5;
70915;PMS5003;58557;50.982;-3.222;2023-05-07T07:08:50;7;5;
70915;PMS5003;58557;50.982;-3.222;2023-05-07T07:11:15;7;6;
70915;PMS5003;58557;50.982;-3.222;2023-05-07T07:13:41;5;4;
70915;PMS5003;58557;50.982;-3.222;2023-05-07T07:16:07;6;4;
70915;PMS5003;58557;50.982;-3.222;2023-05-07T07:18:32;6;6;
70915;PMS5003;58557;50.982;-3.222;2023-05-07T07:20:58;5;5;
70915;PMS5003;58557;50.982;-3.222;2023-05-07T07:23:24;5;4;
70915;PMS5003;58557;50.982;-3.222;2023-05-07T07:25:49;7;6;
70915;PMS5003;58557;50.982;-3.222;2023-05-07T07:28:14;4;4;
70915;PMS5003;58557;50.982;-3.222;2023-05-07T07:30:40;6;4;
70915;PMS5003;58557;50.982;-3.222;2023-05-07T07:33:06;4;4;
70915;PMS5003;58557;50.982;-3.222;2023-05-07T07:35:32;7;5;
70915;PMS5003;58557;50.982;-3.222;2023-05-07T07:37:57;8;6;
70915;PMS5003;58557;50.982;-3.222;2023-05-07T07:40:22;7;6;
70915;PMS5003;58557;50.982;-3.222;2023-05-07T07:42:48;6;6;
70915;PMS5003;58557;50.982;-3.222;2023-05-07T07:45:14;4;4;
70915;PMS5003;58557;50.982;-3.222;2023-05-07T07:47:39;6;4;
70915;PMS5003;58557;50.982;-3.222;2023-05-07T07:50:05;6;4;
70915;PMS5003;58557;50.982;-3.222;2023-05-07T07:52:31;2;2;
70915;PMS5003;58557;50.982;-3.222;2023-05-07T07:54:56;4;4;
70915;PMS5003;58557;50.982;-3.222;2023-05-07T07:57:22;3;3;
70915;PMS5003;58557;50.982;-3.222;2023-05-07T07:59:48;6;3;
70915;PMS5003;58557;50.982;-3.222;2023-05-07T08:02:13;6;4;
70915;PMS5003;58557;50.982;-3.222;2023-05-07T08:04:39;6;5;
70915;PMS5003;58557;50.982;-3.222;2023-05-07T08:07:04;5;4;
70915;PMS5003;58557;50.982;-3.222;2023-05-07T08:09:30;6;4;
70915;PMS5003;58557;50.982;-3.222;2023-05-07T08:11:56;4;4;
70915;PMS5003;58557;50.982;-3.222;2023-05-07T08:14:21;6;5;
70915;PMS5003;58557;50.982;-3.222;2023-05-07T08:16:47;4;3;
70915;PMS5003;58557;50.982;-3.222;2023-05-07T08:19:13;4;4;
70915;PMS5003;58557;50.982;-3.222;2023-05-07T08:21:39;4;3;
70915;PMS5003;58557;50.982;-3.222;2023-05-07T08:24:04;6;4;
70915;PMS5003;58557;50.982;-3.222;2023-05-07T08:26:30;6;6;
70915;PMS5003;58557;50.982;-3.222;2023-05-07T08:28:55;6;4;
70915;PMS5003;58557;50.982;-3.222;2023-05-07T08:31:21;9;6;
70915;PMS5003;58557;50.982;-3.222;2023-05-07T08:33:47;7;4;
70915;PMS5003;58557;50.982;-3.222;2023-05-07T08:36:12;5;4;
70915;PMS5003;58557;50.982;-3.222;2023-05-07T08:38:38;6;4;
70915;PMS5003;58557;50.982;-3.222;2023-05-07T08:41:03;6;4;
70915;PMS5003;58557;50.982;-3.222;2023-05-07T08:43:29;8;6;
70915;PMS5003;58557;50.982;-3.222;2023-05-07T08:45:55;4;2;
70915;PMS5003;58557;50.982;-3.222;2023-05-07T08:48:22;5;5;
70915;PMS5003;58557;50.982;-3.222;2023-05-07T08:50:46;8;5;
70915;PMS5003;58557;50.982;-3.222;2023-05-07T08:53:11;5;3;
70915;PMS5003;58557;50.982;-3.222;2023-05-07T08:55:37;5;5;
70915;PMS5003;58557;50.982;-3.222;2023-05-07T08:58:03;6;5;
70915;PMS5003;58557;50.982;-3.222;2023-05-07T09:00:28;6;6;
70915;PMS5003;58557;50.982;-3.222;2023-05-07T09:02:54;8;6;
70915;PMS5003;58557;50.982;-3.222;2023-05-07T09:05:20;8;6;
70915;PMS5003;58557;50.982;-3.222;2023-05-07T09:07:45;5;5;
70915;PMS5003;58557;50.982;-3.222;2023-05-07T09:10:11;8;5;
70915;PMS5003;58557;50.982;-3.222;2023-05-07T09:12:36;5;4;
70915;PMS5003;58557;50.982;-3.222;2023-05-07T09:15:02;6;3;
70915;PMS5003;58557;50.982;-3.222;2023-05-07T09:17:28;8;6;
70915;PMS5003;58557;50.982;-3.222;2023-05-07T09:19:53;6;4;
70915;PMS5003;58557;50.982;-3.222;2023-05-07T09:22:19;5;5;
70915;PMS5003;58557;50.982;-3.222;2023-05-07T09:24:47;4;4;
70915;PMS5003;58557;50.982;-3.222;2023-05-07T09:27:10;8;4;
70915;PMS5003;58557;50.982;-3.222;2023-05-07T09:29:35;11;11;
70915;PMS5003;58557;50.982;-3.222;2023-05-07T09:32:01;6;4;
70915;PMS5003;58557;50.982;-3.222;2023-05-07T09:34:26;7;5;
70915;PMS5003;58557;50.982;-3.222;2023-05-07T09:36:52;4;3;
70915;PMS5003;58557;50.982;-3.222;2023-05-07T09:39:18;8;5;
70915;PMS5003;58557;50.982;-3.222;2023-05-07T09:41:43;9;6;
70915;PMS5003;58557;50.982;-3.222;2023-05-07T09:44:08;12;10;
70915;PMS5003;58557;50.982;-3.222;2023-05-07T09:46:34;5;4;
70915;PMS5003;58557;50.982;-3.222;2023-05-07T09:48:59;5;4;
70915;PMS5003;58557;50.982;-3.222;2023-05-07T09:51:27;6;5;
70915;PMS5003;58557;50.982;-3.222;2023-05-07T09:53:51;8;6;
70915;PMS5003;58557;50.982;-3.222;2023-05-07T09:56:16;5;4;
70915;PMS5003;58557;50.982;-3.222;2023-05-07T09:58:42;6;5;
70915;PMS5003;58557;50.982;-3.222;2023-05-07T10:01:07;11;7;
70915;PMS5003;58557;50.982;-3.222;2023-05-07T10:03:33;5;4;
70915;PMS5003;58557;50.982;-3.222;2023-05-07T10:05:58;6;6;
70915;PMS5003;58557;50.982;-3.222;2023-05-07T10:08:24;5;5;
70915;PMS5003;58557;50.982;-3.222;2023-05-07T10:10:50;6;5;
70915;PMS5003;58557;50.982;-3.222;2023-05-07T10:13:16;4;4;
70915;PMS5003;58557;50.982;-3.222;2023-05-07T10:15:41;5;5;
70915;PMS5003;58557;50.982;-3.222;2023-05-07T10:18:07;7;5;
70915;PMS5003;58557;50.982;-3.222;2023-05-07T10:20:33;10;6;
70915;PMS5003;58557;50.982;-3.222;2023-05-07T10:22:58;5;4;
70915;PMS5003;58557;50.982;-3.222;2023-05-07T10:25:25;3;3;
70915;PMS5003;58557;50.982;-3.222;2023-05-07T10:27:49;5;4;
70915;PMS5003;58557;50.982;-3.222;2023-05-07T10:30:18;5;5;
70915;PMS5003;58557;50.982;-3.222;2023-05-07T10:32:42;6;3;
70915;PMS5003;58557;50.982;-3.222;2023-05-07T10:35:09;6;6;
70915;PMS5003;58557;50.982;-3.222;2023-05-07T10:37:32;5;4;
70915;PMS5003;58557;50.982;-3.222;2023-05-07T10:39:57;5;4;
70915;PMS5003;58557;50.982;-3.222;2023-05-07T10:42:23;8;4;
70915;PMS5003;58557;50.982;-3.222;2023-05-07T10:44:48;5;4;
70915;PMS5003;58557;50.982;-3.222;2023-05-07T10:47:14;6;6;
70915;PMS5003;58557;50.982;-3.222;2023-05-07T10:52:11;3;3;
70915;PMS5003;58557;50.982;-3.222;2023-05-07T10:54:30;6;5;
70915;PMS5003;58557;50.982;-3.222;2023-05-07T10:56:56;4;4;
70915;PMS5003;58557;50.982;-3.222;2023-05-07T10:59:30;8;5;
70915;PMS5003;58557;50.982;-3.222;2023-05-07T11:01:52;4;3;
70915;PMS5003;58557;50.982;-3.222;2023-05-07T11:04:13;5;5;
70915;PMS5003;58557;50.982;-3.222;2023-05-07T11:06:39;3;3;
70915;PMS5003;58557;50.982;-3.222;2023-05-07T11:09:04;6;5;
70915;PMS5003;58557;50.982;-3.222;2023-05-07T11:13:56;5;4;
70915;PMS5003;58557;50.982;-3.222;2023-05-07T11:16:21;4;4;
70915;PMS5003;58557;50.982;-3.222;2023-05-07T11:18:47;5;5;
70915;PMS5003;58557;50.982;-3.222;2023-05-07T11:21:12;9;6;
70915;PMS5003;58557;50.982;-3.222;2023-05-07T11:26:04;6;6;
70915;PMS5003;58557;50.982;-3.222;2023-05-07T11:28:29;5;4;
70915;PMS5003;58557;50.982;-3.222;2023-05-07T11:30:54;6;5;
70915;PMS5003;58557;50.982;-3.222;2023-05-07T11:33:20;5;5;
70915;PMS5003;58557;50.982;-3.222;2023-05-07T11:35:45;5;4;
70915;PMS5003;58557;50.982;-3.222;2023-05-07T11:38:10;6;6;
70915;PMS5003;58557;50.982;-3.222;2023-05-07T11:45:27;8;8;
70915;PMS5003;58557;50.982;-3.222;2023-05-07T11:47:53;6;6;
70915;PMS5003;58557;50.982;-3.222;2023-05-07T11:50:18;6;6;
70915;PMS5003;58557;50.982;-3.222;2023-05-07T11:55:10;9;6;
70915;PMS5003;58557;50.982;-3.222;2023-05-07T11:57:35;6;5;
70915;PMS5003;58557;50.982;-3.222;2023-05-07T12:00:01;6;6;
70915;PMS5003;58557;50.982;-3.222;2023-05-07T12:02:27;8;7;
70915;PMS5003;58557;50.982;-3.222;2023-05-07T12:04:52;5;4;
70915;PMS5003;58557;50.982;-3.222;2023-05-07T12:07:18;7;7;
70915;PMS5003;58557;50.982;-3.222;2023-05-07T12:09:43;6;6;
70915;PMS5003;58557;50.982;-3.222;2023-05-07T12:12:09;4;4;
70915;PMS5003;58557;50.982;-3.222;2023-05-07T12:14:37;7;4;
70915;PMS5003;58557;50.982;-3.222;2023-05-07T12:17:00;4;3;
70915;PMS5003;58557;50.982;-3.222;2023-05-07T12:19:26;5;5;
70915;PMS5003;58557;50.982;-3.222;2023-05-07T12:21:51;4;4;
70915;PMS5003;58557;50.982;-3.222;2023-05-07T12:24:17;6;5;
70915;PMS5003;58557;50.982;-3.222;2023-05-07T12:26:43;5;5;
70915;PMS5003;58557;50.982;-3.222;2023-05-07T12:29:08;6;6;
70915;PMS5003;58557;50.982;-3.222;2023-05-07T12:31:34;6;6;
70915;PMS5003;58557;50.982;-3.222;2023-05-07T12:33:59;6;4;
70915;PMS5003;58557;50.982;-3.222;2023-05-07T12:36:25;5;5;
70915;PMS5003;58557;50.982;-3.222;2023-05-07T12:38:50;8;8;
70915;PMS5003;58557;50.982;-3.222;2023-05-07T12:41:16;5;5;
70915;PMS5003;58557;50.982;-3.222;2023-05-07T12:43:43;9;7;
70915;PMS5003;58557;50.982;-3.222;2023-05-07T12:46:07;6;5;
70915;PMS5003;58557;50.982;-3.222;2023-05-07T12:48:33;7;5;
70915;PMS5003;58557;50.982;-3.222;2023-05-07T12:50:59;11;6;
70915;PMS5003;58557;50.982;-3.222;2023-05-07T12:53:24;8;7;
70915;PMS5003;58557;50.982;-3.222;2023-05-07T12:55:50;10;5;
70915;PMS5003;58557;50.982;-3.222;2023-05-07T12:58:15;7;5;
70915;PMS5003;58557;50.982;-3.222;2023-05-07T13:00:41;8;7;
70915;PMS5003;58557;50.982;-3.222;2023-05-07T13:03:06;8;5;
70915;PMS5003;58557;50.982;-3.222;2023-05-07T13:05:32;6;6;
70915;PMS5003;58557;50.982;-3.222;2023-05-07T13:07:58;7;5;
70915;PMS5003;58557;50.982;-3.222;2023-05-07T13:10:23;3;3;
70915;PMS5003;58557;50.982;-3.222;2023-05-07T13:12:48;7;4;
70915;PMS5003;58557;50.982;-3.222;2023-05-07T13:15:14;8;7;
70915;PMS5003;58557;50.982;-3.222;2023-05-07T13:17:40;4;4;
70915;PMS5003;58557;50.982;-3.222;2023-05-07T13:20:06;5;5;
70915;PMS5003;58557;50.982;-3.222;2023-05-07T13:22:31;7;6;
70915;PMS5003;58557;50.982;-3.222;2023-05-07T13:24:56;6;5;
70915;PMS5003;58557;50.982;-3.222;2023-05-07T13:27:22;4;4;
70915;PMS5003;58557;50.982;-3.222;2023-05-07T13:29:47;8;8;
70915;PMS5003;58557;50.982;-3.222;2023-05-07T13:32:13;4;4;
70915;PMS5003;58557;50.982;-3.222;2023-05-07T13:34:38;3;3;
70915;PMS5003;58557;50.982;-3.222;2023-05-07T13:37:04;7;6;
70915;PMS5003;58557;50.982;-3.222;2023-05-07T13:39:29;6;4;
70915;PMS5003;58557;50.982;-3.222;2023-05-07T13:41:55;5;5;
70915;PMS5003;58557;50.982;-3.222;2023-05-07T13:44:21;5;4;
70915;PMS5003;58557;50.982;-3.222;2023-05-07T13:46:46;9;8;
70915;PMS5003;58557;50.982;-3.222;2023-05-07T13:49:12;4;4;
70915;PMS5003;58557;50.982;-3.222;2023-05-07T13:51:37;4;4;
70915;PMS5003;58557;50.982;-3.222;2023-05-07T13:54:02;3;3;
70915;PMS5003;58557;50.982;-3.222;2023-05-07T13:56:28;2;2;
70915;PMS5003;58557;50.982;-3.222;2023-05-07T13:58:54;4;4;
70915;PMS5003;58557;50.982;-3.222;2023-05-07T14:01:19;3;3;
70915;PMS5003;58557;50.982;-3.222;2023-05-07T14:03:45;5;3;
70915;PMS5003;58557;50.982;-3.222;2023-05-07T14:06:10;3;3;
70915;PMS5003;58557;50.982;-3.222;2023-05-07T14:08:36;4;3;
70915;PMS5003;58557;50.982;-3.222;2023-05-07T14:11:01;2;2;
70915;PMS5003;58557;50.982;-3.222;2023-05-07T14:13:27;2;2;
70915;PMS5003;58557;50.982;-3.222;2023-05-07T14:15:53;6;4;
70915;PMS5003;58557;50.982;-3.222;2023-05-07T14:18:18;3;3;
70915;PMS5003;58557;50.982;-3.222;2023-05-07T14:20:44;5;3;
70915;PMS5003;58557;50.982;-3.222;2023-05-07T14:23:09;2;2;
70915;PMS5003;58557;50.982;-3.222;2023-05-07T14:25:35;3;2;
70915;PMS5003;58557;50.982;-3.222;2023-05-07T14:28:00;4;4;
70915;PMS5003;58557;50.982;-3.222;2023-05-07T14:30:26;1;1;
70915;PMS5003;58557;50.982;-3.222;2023-05-07T14:32:51;3;3;
70915;PMS5003;58557;50.982;-3.222;2023-05-07T14:35:17;1;1;
70915;PMS5003;58557;50.982;-3.222;2023-05-07T14:37:42;4;3;
70915;PMS5003;58557;50.982;-3.222;2023-05-07T14:40:08;5;4;
70915;PMS5003;58557;50.982;-3.222;2023-05-07T14:42:33;3;3;
70915;PMS5003;58557;50.982;-3.222;2023-05-07T14:44:59;2;2;
70915;PMS5003;58557;50.982;-3.222;2023-05-07T14:47:24;4;3;
70915;PMS5003;58557;50.982;-3.222;2023-05-07T14:49:50;4;4;
70915;PMS5003;58557;50.982;-3.222;2023-05-07T14:52:16;3;2;
70915;PMS5003;58557;50.982;-3.222;2023-05-07T14:54:41;3;3;
70915;PMS5003;58557;50.982;-3.222;2023-05-07T14:57:07;3;3;
70915;PMS5003;58557;50.982;-3.222;2023-05-07T14:59:32;5;5;
70915;PMS5003;58557;50.982;-3.222;2023-05-07T15:01:58;2;2;
70915;PMS5003;58557;50.982;-3.222;2023-05-07T15:04:23;3;3;
70915;PMS5003;58557;50.982;-3.222;2023-05-07T15:06:49;2;2;
70915;PMS5003;58557;50.982;-3.222;2023-05-07T15:09:14;4;2;
70915;PMS5003;58557;50.982;-3.222;2023-05-07T15:11:40;3;3;
70915;PMS5003;58557;50.982;-3.222;2023-05-07T15:14:05;3;2;
70915;PMS5003;58557;50.982;-3.222;2023-05-07T15:16:31;1;1;
70915;PMS5003;58557;50.982;-3.222;2023-05-07T15:18:56;1;1;
70915;PMS5003;58557;50.982;-3.222;2023-05-07T15:21:22;3;3;
70915;PMS5003;58557;50.982;-3.222;2023-05-07T15:23:47;3;2;
70915;PMS5003;58557;50.982;-3.222;2023-05-07T15:26:13;4;4;
70915;PMS5003;58557;50.982;-3.222;2023-05-07T15:28:39;3;3;
70915;PMS5003;58557;50.982;-3.222;2023-05-07T15:31:04;2;2;
70915;PMS5003;58557;50.982;-3.222;2023-05-07T15:33:30;2;2;
70915;PMS5003;58557;50.982;-3.222;2023-05-07T15:35:55;2;2;
70915;PMS5003;58557;50.982;-3.222;2023-05-07T15:38:21;2;2;
70915;PMS5003;58557;50.982;-3.222;2023-05-07T15:40:46;4;3;
70915;PMS5003;58557;50.982;-3.222;2023-05-07T15:43:12;2;2;
70915;PMS5003;58557;50.982;-3.222;2023-05-07T15:45:38;3;2;
70915;PMS5003;58557;50.982;-3.222;2023-05-07T15:48:03;3;3;
70915;PMS5003;58557;50.982;-3.222;2023-05-07T15:50:29;3;3;
70915;PMS5003;58557;50.982;-3.222;2023-05-07T15:52:54;4;4;
70915;PMS5003;58557;50.982;-3.222;2023-05-07T15:55:20;2;2;
70915;PMS5003;58557;50.982;-3.222;2023-05-07T15:57:45;2;2;
70915;PMS5003;58557;50.982;-3.222;2023-05-07T16:00:11;4;3;
70915;PMS5003;58557;50.982;-3.222;2023-05-07T16:02:37;4;2;
70915;PMS5003;58557;50.982;-3.222;2023-05-07T16:05:02;1;1;
70915;PMS5003;58557;50.982;-3.222;2023-05-07T16:07:27;3;3;
70915;PMS5003;58557;50.982;-3.222;2023-05-07T16:09:53;4;4;
70915;PMS5003;58557;50.982;-3.222;2023-05-07T16:12:19;5;3;
70915;PMS5003;58557;50.982;-3.222;2023-05-07T16:14:44;5;3;
70915;PMS5003;58557;50.982;-3.222;2023-05-07T16:17:10;4;4;
70915;PMS5003;58557;50.982;-3.222;2023-05-07T16:19:35;5;5;
70915;PMS5003;58557;50.982;-3.222;2023-05-07T16:22:01;6;5;
70915;PMS5003;58557;50.982;-3.222;2023-05-07T16:24:27;5;2;
70915;PMS5003;58557;50.982;-3.222;2023-05-07T16:26:52;7;5;
70915;PMS5003;58557;50.982;-3.222;2023-05-07T16:29:18;6;4;
70915;PMS5003;58557;50.982;-3.222;2023-05-07T16:31:43;9;7;